sensor_id;sensor_type;location;lat;lon;timestamp;P1;durP1;ratioP1;P2;durP2;ratioP2
20232;SDS011;37438;55.674;13.074;2023-03-03T00:02:57;7.10;;;3.23;;
20232;SDS011;37438;55.674;13.074;2023-03-03T00:06:06;6.80;;;3.80;;
20232;SDS011;37438;55.674;13.074;2023-03-03T00:09:13;10.43;;;4.40;;
20232;SDS011;37438;55.674;13.074;2023-03-03T00:15:33;8.18;;;5.28;;
20232;SDS011;37438;55.674;13.074;2023-03-03T00:18:40;8.23;;;4.78;;
20232;SDS011;37438;55.674;13.074;2023-03-03T00:21:48;9.48;;;4.15;;
20232;SDS011;37438;55.674;13.074;2023-03-03T00:24:54;12.95;;;6.05;;
20232;SDS011;37438;55.674;13.074;2023-03-03T00:28:06;6.97;;;4.95;;
20232;SDS011;37438;55.674;13.074;2023-03-03T00:31:26;12.43;;;6.07;;
20232;SDS011;37438;55.674;13.074;2023-03-03T00:34:36;10.50;;;5.38;;
20232;SDS011;37438;55.674;13.074;2023-03-03T00:37:40;10.18;;;5.97;;
20232;SDS011;37438;55.674;13.074;2023-03-03T00:40:45;13.47;;;6.47;;
20232;SDS011;37438;55.674;13.074;2023-03-03T00:43:50;13.18;;;6.82;;
20232;SDS011;37438;55.674;13.074;2023-03-03T00:53:15;11.45;;;7.22;;
20232;SDS011;37438;55.674;13.074;2023-03-03T00:56:21;7.50;;;5.63;;
20232;SDS011;37438;55.674;13.074;2023-03-03T00:59:26;9.82;;;5.43;;
20232;SDS011;37438;55.674;13.074;2023-03-03T01:02:31;8.98;;;5.97;;
20232;SDS011;37438;55.674;13.074;2023-03-03T01:05:36;7.60;;;6.30;;
20232;SDS011;37438;55.674;13.074;2023-03-03T01:08:41;11.70;;;6.75;;
20232;SDS011;37438;55.674;13.074;2023-03-03T01:11:45;12.23;;;5.83;;
20232;SDS011;37438;55.674;13.074;2023-03-03T01:14:51;10.40;;;6.05;;
20232;SDS011;37438;55.674;13.074;2023-03-03T01:17:58;18.88;;;6.97;;
20232;SDS011;37438;55.674;13.074;2023-03-03T01:21:02;8.48;;;5.68;;
20232;SDS011;37438;55.674;13.074;2023-03-03T01:24:08;12.55;;;7.28;;
20232;SDS011;37438;55.674;13.074;2023-03-03T01:27:13;18.75;;;8.48;;
20232;SDS011;37438;55.674;13.074;2023-03-03T01:30:17;11.57;;;6.57;;
20232;SDS011;37438;55.674;13.074;2023-03-03T01:33:22;14.93;;;6.38;;
20232;SDS011;37438;55.674;13.074;2023-03-03T01:36:27;16.23;;;8.57;;
20232;SDS011;37438;55.674;13.074;2023-03-03T01:39:32;15.90;;;8.65;;
20232;SDS011;37438;55.674;13.074;2023-03-03T01:42:36;15.02;;;8.98;;
20232;SDS011;37438;55.674;13.074;2023-03-03T01:45:44;12.63;;;8.07;;
20232;SDS011;37438;55.674;13.074;2023-03-03T01:49:16;21.25;;;9.82;;
20232;SDS011;37438;55.674;13.074;2023-03-03T01:52:40;20.92;;;9.63;;
20232;SDS011;37438;55.674;13.074;2023-03-03T01:55:47;23.98;;;12.75;;
20232;SDS011;37438;55.674;13.074;2023-03-03T02:02:14;18.40;;;10.63;;
20232;SDS011;37438;55.674;13.074;2023-03-03T02:05:19;20.10;;;10.43;;
20232;SDS011;37438;55.674;13.074;2023-03-03T02:08:25;22.27;;;11.10;;
20232;SDS011;37438;55.674;13.074;2023-03-03T02:11:38;30.65;;;13.40;;
20232;SDS011;37438;55.674;13.074;2023-03-03T02:14:46;25.15;;;13.38;;
20232;SDS011;37438;55.674;13.074;2023-03-03T02:17:58;25.30;;;13.95;;
20232;SDS011;37438;55.674;13.074;2023-03-03T02:24:17;24.10;;;13.65;;
20232;SDS011;37438;55.674;13.074;2023-03-03T02:27:31;26.45;;;14.25;;
20232;SDS011;37438;55.674;13.074;2023-03-03T02:30:37;30.27;;;14.57;;
20232;SDS011;37438;55.674;13.074;2023-03-03T02:33:46;28.05;;;15.07;;
20232;SDS011;37438;55.674;13.074;2023-03-03T02:36:51;26.95;;;14.63;;
20232;SDS011;37438;55.674;13.074;2023-03-03T02:39:56;28.58;;;14.45;;
20232;SDS011;37438;55.674;13.074;2023-03-03T02:43:01;26.93;;;12.60;;
20232;SDS011;37438;55.674;13.074;2023-03-03T02:46:08;32.67;;;16.17;;
20232;SDS011;37438;55.674;13.074;2023-03-03T02:49:17;27.07;;;12.97;;
20232;SDS011;37438;55.674;13.074;2023-03-03T02:52:24;40.20;;;16.60;;
20232;SDS011;37438;55.674;13.074;2023-03-03T02:55:28;35.93;;;16.40;;
20232;SDS011;37438;55.674;13.074;2023-03-03T02:58:33;39.50;;;17.10;;
20232;SDS011;37438;55.674;13.074;2023-03-03T03:01:39;45.72;;;19.20;;
20232;SDS011;37438;55.674;13.074;2023-03-03T03:04:48;34.95;;;16.85;;
20232;SDS011;37438;55.674;13.074;2023-03-03T03:07:57;32.75;;;15.20;;
20232;SDS011;37438;55.674;13.074;2023-03-03T03:11:03;43.33;;;17.40;;
20232;SDS011;37438;55.674;13.074;2023-03-03T03:14:10;35.03;;;15.20;;
20232;SDS011;37438;55.674;13.074;2023-03-03T03:17:16;33.88;;;14.25;;
20232;SDS011;37438;55.674;13.074;2023-03-03T03:23:26;30.05;;;13.45;;
20232;SDS011;37438;55.674;13.074;2023-03-03T03:29:36;32.13;;;13.35;;
20232;SDS011;37438;55.674;13.074;2023-03-03T03:32:41;37.63;;;14.38;;
20232;SDS011;37438;55.674;13.074;2023-03-03T03:35:45;32.72;;;12.82;;
20232;SDS011;37438;55.674;13.074;2023-03-03T03:38:52;34.60;;;14.73;;
20232;SDS011;37438;55.674;13.074;2023-03-03T03:41:58;40.72;;;16.67;;
20232;SDS011;37438;55.674;13.074;2023-03-03T03:45:03;40.58;;;16.20;;
20232;SDS011;37438;55.674;13.074;2023-03-03T03:48:07;40.88;;;15.30;;
20232;SDS011;37438;55.674;13.074;2023-03-03T03:51:12;41.20;;;17.33;;
20232;SDS011;37438;55.674;13.074;2023-03-03T03:54:17;42.38;;;16.20;;
20232;SDS011;37438;55.674;13.074;2023-03-03T03:57:22;37.72;;;15.48;;
20232;SDS011;37438;55.674;13.074;2023-03-03T04:00:30;39.78;;;16.65;;
20232;SDS011;37438;55.674;13.074;2023-03-03T04:03:36;31.77;;;15.52;;
20232;SDS011;37438;55.674;13.074;2023-03-03T04:06:45;34.47;;;14.68;;
20232;SDS011;37438;55.674;13.074;2023-03-03T04:09:50;33.85;;;14.98;;
20232;SDS011;37438;55.674;13.074;2023-03-03T04:12:55;37.00;;;15.48;;
20232;SDS011;37438;55.674;13.074;2023-03-03T04:16:01;29.90;;;14.18;;
20232;SDS011;37438;55.674;13.074;2023-03-03T04:22:13;33.78;;;13.98;;
20232;SDS011;37438;55.674;13.074;2023-03-03T04:25:19;33.50;;;14.35;;
20232;SDS011;37438;55.674;13.074;2023-03-03T04:31:30;23.70;;;10.20;;
20232;SDS011;37438;55.674;13.074;2023-03-03T04:34:36;29.55;;;13.02;;
20232;SDS011;37438;55.674;13.074;2023-03-03T04:40:47;28.17;;;13.00;;
20232;SDS011;37438;55.674;13.074;2023-03-03T04:43:54;32.55;;;13.20;;
20232;SDS011;37438;55.674;13.074;2023-03-03T04:46:58;27.67;;;12.75;;
20232;SDS011;37438;55.674;13.074;2023-03-03T04:50:03;28.85;;;13.25;;
20232;SDS011;37438;55.674;13.074;2023-03-03T04:53:09;37.42;;;13.63;;
20232;SDS011;37438;55.674;13.074;2023-03-03T04:56:14;32.42;;;12.75;;
20232;SDS011;37438;55.674;13.074;2023-03-03T04:59:19;28.77;;;13.15;;
20232;SDS011;37438;55.674;13.074;2023-03-03T05:02:23;40.50;;;13.52;;
20232;SDS011;37438;55.674;13.074;2023-03-03T05:05:28;25.13;;;12.77;;
20232;SDS011;37438;55.674;13.074;2023-03-03T05:08:33;23.37;;;10.10;;
20232;SDS011;37438;55.674;13.074;2023-03-03T05:11:37;32.17;;;12.93;;
20232;SDS011;37438;55.674;13.074;2023-03-03T05:14:42;26.15;;;12.13;;
20232;SDS011;37438;55.674;13.074;2023-03-03T05:17:46;25.45;;;12.65;;
20232;SDS011;37438;55.674;13.074;2023-03-03T05:20:51;30.45;;;13.55;;
20232;SDS011;37438;55.674;13.074;2023-03-03T05:23:55;30.35;;;12.50;;
20232;SDS011;37438;55.674;13.074;2023-03-03T05:27:00;25.88;;;12.10;;
20232;SDS011;37438;55.674;13.074;2023-03-03T05:30:06;32.45;;;13.70;;
20232;SDS011;37438;55.674;13.074;2023-03-03T05:33:12;31.05;;;12.55;;
20232;SDS011;37438;55.674;13.074;2023-03-03T05:36:18;30.67;;;13.82;;
20232;SDS011;37438;55.674;13.074;2023-03-03T05:39:22;33.65;;;11.73;;
20232;SDS011;37438;55.674;13.074;2023-03-03T05:42:27;23.75;;;11.63;;
20232;SDS011;37438;55.674;13.074;2023-03-03T05:45:32;29.88;;;13.32;;
20232;SDS011;37438;55.674;13.074;2023-03-03T05:48:38;30.20;;;11.35;;
20232;SDS011;37438;55.674;13.074;2023-03-03T05:51:42;21.02;;;9.75;;
20232;SDS011;37438;55.674;13.074;2023-03-03T05:54:46;22.17;;;9.67;;
20232;SDS011;37438;55.674;13.074;2023-03-03T05:57:51;25.53;;;9.57;;
20232;SDS011;37438;55.674;13.074;2023-03-03T06:00:55;21.70;;;9.50;;
20232;SDS011;37438;55.674;13.074;2023-03-03T06:04:00;29.27;;;10.05;;
20232;SDS011;37438;55.674;13.074;2023-03-03T06:07:04;18.47;;;8.60;;
20232;SDS011;37438;55.674;13.074;2023-03-03T06:10:09;30.30;;;9.98;;
20232;SDS011;37438;55.674;13.074;2023-03-03T06:13:16;22.83;;;9.25;;
20232;SDS011;37438;55.674;13.074;2023-03-03T06:16:21;27.08;;;8.77;;
20232;SDS011;37438;55.674;13.074;2023-03-03T06:19:25;21.52;;;8.50;;
20232;SDS011;37438;55.674;13.074;2023-03-03T06:22:30;18.40;;;8.25;;
20232;SDS011;37438;55.674;13.074;2023-03-03T06:25:34;24.25;;;11.38;;
20232;SDS011;37438;55.674;13.074;2023-03-03T06:28:39;19.52;;;8.63;;
20232;SDS011;37438;55.674;13.074;2023-03-03T06:31:43;23.42;;;10.98;;
20232;SDS011;37438;55.674;13.074;2023-03-03T06:34:48;24.10;;;11.10;;
20232;SDS011;37438;55.674;13.074;2023-03-03T06:37:52;30.67;;;11.07;;
20232;SDS011;37438;55.674;13.074;2023-03-03T06:40:57;23.48;;;10.57;;
20232;SDS011;37438;55.674;13.074;2023-03-03T06:44:04;25.63;;;10.82;;
20232;SDS011;37438;55.674;13.074;2023-03-03T06:47:09;26.83;;;12.77;;
20232;SDS011;37438;55.674;13.074;2023-03-03T06:50:13;26.93;;;11.73;;
20232;SDS011;37438;55.674;13.074;2023-03-03T06:53:22;30.90;;;11.80;;
20232;SDS011;37438;55.674;13.074;2023-03-03T06:56:29;34.78;;;13.35;;
20232;SDS011;37438;55.674;13.074;2023-03-03T06:59:38;41.92;;;13.93;;
20232;SDS011;37438;55.674;13.074;2023-03-03T07:02:44;41.30;;;14.45;;
20232;SDS011;37438;55.674;13.074;2023-03-03T07:06:00;43.15;;;14.77;;
20232;SDS011;37438;55.674;13.074;2023-03-03T07:09:23;56.80;;;15.93;;
20232;SDS011;37438;55.674;13.074;2023-03-03T07:12:29;97.85;;;18.52;;
20232;SDS011;37438;55.674;13.074;2023-03-03T07:15:33;91.38;;;18.17;;
20232;SDS011;37438;55.674;13.074;2023-03-03T07:21:43;143.77;;;19.85;;
20232;SDS011;37438;55.674;13.074;2023-03-03T07:24:49;151.70;;;18.87;;
20232;SDS011;37438;55.674;13.074;2023-03-03T07:28:11;315.35;;;24.08;;
20232;SDS011;37438;55.674;13.074;2023-03-03T07:31:39;159.02;;;19.65;;
20232;SDS011;37438;55.674;13.074;2023-03-03T07:34:45;257.92;;;23.98;;
20232;SDS011;37438;55.674;13.074;2023-03-03T07:37:51;134.23;;;19.63;;
20232;SDS011;37438;55.674;13.074;2023-03-03T07:40:57;250.20;;;23.88;;
20232;SDS011;37438;55.674;13.074;2023-03-03T07:44:04;173.63;;;21.25;;
20232;SDS011;37438;55.674;13.074;2023-03-03T07:47:20;148.80;;;21.15;;
20232;SDS011;37438;55.674;13.074;2023-03-03T07:50:29;183.90;;;18.60;;
20232;SDS011;37438;55.674;13.074;2023-03-03T07:56:40;156.70;;;19.77;;
20232;SDS011;37438;55.674;13.074;2023-03-03T07:59:49;252.90;;;25.10;;
20232;SDS011;37438;55.674;13.074;2023-03-03T08:03:07;219.90;;;27.38;;
20232;SDS011;37438;55.674;13.074;2023-03-03T08:06:38;288.02;;;27.65;;
20232;SDS011;37438;55.674;13.074;2023-03-03T08:09:48;107.18;;;22.05;;
20232;SDS011;37438;55.674;13.074;2023-03-03T08:13:08;131.82;;;22.42;;
20232;SDS011;37438;55.674;13.074;2023-03-03T08:16:23;99.15;;;22.55;;
20232;SDS011;37438;55.674;13.074;2023-03-03T08:19:33;113.18;;;20.52;;
20232;SDS011;37438;55.674;13.074;2023-03-03T08:22:38;120.47;;;21.50;;
20232;SDS011;37438;55.674;13.074;2023-03-03T08:25:42;109.63;;;18.10;;
20232;SDS011;37438;55.674;13.074;2023-03-03T08:28:47;135.35;;;20.15;;
20232;SDS011;37438;55.674;13.074;2023-03-03T08:31:52;107.10;;;15.27;;
20232;SDS011;37438;55.674;13.074;2023-03-03T08:34:56;137.65;;;20.75;;
20232;SDS011;37438;55.674;13.074;2023-03-03T08:38:00;119.50;;;20.90;;
20232;SDS011;37438;55.674;13.074;2023-03-03T08:41:05;107.28;;;19.75;;
20232;SDS011;37438;55.674;13.074;2023-03-03T08:44:10;196.87;;;23.80;;
20232;SDS011;37438;55.674;13.074;2023-03-03T08:47:14;44.17;;;17.63;;
20232;SDS011;37438;55.674;13.074;2023-03-03T08:50:18;59.28;;;20.67;;
20232;SDS011;37438;55.674;13.074;2023-03-03T08:53:23;48.85;;;20.02;;
20232;SDS011;37438;55.674;13.074;2023-03-03T08:56:28;47.63;;;14.38;;
20232;SDS011;37438;55.674;13.074;2023-03-03T08:59:32;52.53;;;13.60;;
20232;SDS011;37438;55.674;13.074;2023-03-03T09:02:41;49.22;;;13.20;;
20232;SDS011;37438;55.674;13.074;2023-03-03T09:05:46;33.25;;;11.27;;
20232;SDS011;37438;55.674;13.074;2023-03-03T09:08:50;31.13;;;10.87;;
20232;SDS011;37438;55.674;13.074;2023-03-03T09:11:57;49.40;;;9.80;;
20232;SDS011;37438;55.674;13.074;2023-03-03T09:15:25;31.52;;;9.85;;
20232;SDS011;37438;55.674;13.074;2023-03-03T09:18:34;39.45;;;10.55;;
20232;SDS011;37438;55.674;13.074;2023-03-03T09:21:40;15.68;;;7.57;;
20232;SDS011;37438;55.674;13.074;2023-03-03T09:24:46;26.52;;;7.95;;
20232;SDS011;37438;55.674;13.074;2023-03-03T09:27:52;20.75;;;8.55;;
20232;SDS011;37438;55.674;13.074;2023-03-03T09:30:59;24.77;;;7.75;;
20232;SDS011;37438;55.674;13.074;2023-03-03T09:34:16;15.52;;;7.07;;
20232;SDS011;37438;55.674;13.074;2023-03-03T09:37:26;19.50;;;6.95;;
20232;SDS011;37438;55.674;13.074;2023-03-03T09:40:41;22.05;;;6.68;;
20232;SDS011;37438;55.674;13.074;2023-03-03T09:51:20;18.63;;;5.45;;
20232;SDS011;37438;55.674;13.074;2023-03-03T09:54:15;19.02;;;6.82;;
20232;SDS011;37438;55.674;13.074;2023-03-03T09:58:01;17.17;;;7.72;;
20232;SDS011;37438;55.674;13.074;2023-03-03T10:12:46;18.25;;;7.55;;
20232;SDS011;37438;55.674;13.074;2023-03-03T10:43:40;15.38;;;9.77;;
20232;SDS011;37438;55.674;13.074;2023-03-03T10:47:08;16.00;;;9.07;;
20232;SDS011;37438;55.674;13.074;2023-03-03T10:54:20;15.43;;;8.95;;
20232;SDS011;37438;55.674;13.074;2023-03-03T11:11:49;13.20;;;8.98;;
20232;SDS011;37438;55.674;13.074;2023-03-03T11:21:45;13.93;;;9.27;;
20232;SDS011;37438;55.674;13.074;2023-03-03T11:25:34;16.00;;;8.30;;
20232;SDS011;37438;55.674;13.074;2023-03-03T11:32:59;17.13;;;9.88;;
20232;SDS011;37438;55.674;13.074;2023-03-03T11:39:15;13.27;;;9.43;;
20232;SDS011;37438;55.674;13.074;2023-03-03T11:45:49;15.85;;;9.65;;
20232;SDS011;37438;55.674;13.074;2023-03-03T11:49:02;13.02;;;8.00;;
20232;SDS011;37438;55.674;13.074;2023-03-03T11:55:44;14.70;;;9.23;;
20232;SDS011;37438;55.674;13.074;2023-03-03T12:02:13;16.33;;;10.70;;
20232;SDS011;37438;55.674;13.074;2023-03-03T12:09:19;14.55;;;10.02;;
20232;SDS011;37438;55.674;13.074;2023-03-03T12:15:54;13.38;;;9.25;;
20232;SDS011;37438;55.674;13.074;2023-03-03T12:22:25;11.60;;;8.95;;
20232;SDS011;37438;55.674;13.074;2023-03-03T12:25:38;9.27;;;6.93;;
20232;SDS011;37438;55.674;13.074;2023-03-03T12:28:51;9.45;;;7.50;;
20232;SDS011;37438;55.674;13.074;2023-03-03T12:36:08;11.13;;;6.47;;
20232;SDS011;37438;55.674;13.074;2023-03-03T12:39:39;7.95;;;6.50;;
20232;SDS011;37438;55.674;13.074;2023-03-03T12:43:01;6.97;;;5.60;;
20232;SDS011;37438;55.674;13.074;2023-03-03T12:54:09;6.50;;;4.63;;
20232;SDS011;37438;55.674;13.074;2023-03-03T13:00:02;4.97;;;4.43;;
20232;SDS011;37438;55.674;13.074;2023-03-03T13:03:41;5.43;;;4.20;;
20232;SDS011;37438;55.674;13.074;2023-03-03T13:07:12;5.50;;;4.50;;
20232;SDS011;37438;55.674;13.074;2023-03-03T13:10:22;6.22;;;4.75;;
20232;SDS011;37438;55.674;13.074;2023-03-03T13:17:33;5.80;;;4.15;;
20232;SDS011;37438;55.674;13.074;2023-03-03T13:20:58;4.80;;;4.07;;
20232;SDS011;37438;55.674;13.074;2023-03-03T13:27:55;7.53;;;4.38;;
20232;SDS011;37438;55.674;13.074;2023-03-03T13:31:50;9.23;;;6.60;;
20232;SDS011;37438;55.674;13.074;2023-03-03T13:34:40;8.60;;;6.85;;
20232;SDS011;37438;55.674;13.074;2023-03-03T13:38:09;9.50;;;6.50;;
20232;SDS011;37438;55.674;13.074;2023-03-03T13:44:46;10.13;;;5.43;;
20232;SDS011;37438;55.674;13.074;2023-03-03T13:58:47;9.13;;;5.47;;
20232;SDS011;37438;55.674;13.074;2023-03-03T14:02:02;7.25;;;5.07;;
20232;SDS011;37438;55.674;13.074;2023-03-03T14:06:04;8.98;;;5.03;;
20232;SDS011;37438;55.674;13.074;2023-03-03T14:09:21;6.30;;;5.32;;
20232;SDS011;37438;55.674;13.074;2023-03-03T14:12:42;16.23;;;5.95;;
20232;SDS011;37438;55.674;13.074;2023-03-03T14:16:04;8.05;;;4.82;;
20232;SDS011;37438;55.674;13.074;2023-03-03T14:19:25;8.05;;;5.03;;
20232;SDS011;37438;55.674;13.074;2023-03-03T14:22:52;9.52;;;6.03;;
20232;SDS011;37438;55.674;13.074;2023-03-03T14:26:08;7.60;;;5.40;;
20232;SDS011;37438;55.674;13.074;2023-03-03T14:29:18;7.65;;;5.05;;
20232;SDS011;37438;55.674;13.074;2023-03-03T14:32:31;10.07;;;5.57;;
20232;SDS011;37438;55.674;13.074;2023-03-03T14:42:32;8.35;;;5.53;;
20232;SDS011;37438;55.674;13.074;2023-03-03T14:45:43;8.77;;;5.60;;
20232;SDS011;37438;55.674;13.074;2023-03-03T14:48:48;5.75;;;4.35;;
20232;SDS011;37438;55.674;13.074;2023-03-03T14:55:32;14.82;;;3.47;;
20232;SDS011;37438;55.674;13.074;2023-03-03T14:58:40;8.43;;;3.30;;
20232;SDS011;37438;55.674;13.074;2023-03-03T15:01:46;11.80;;;3.45;;
20232;SDS011;37438;55.674;13.074;2023-03-03T15:05:11;13.70;;;3.72;;
20232;SDS011;37438;55.674;13.074;2023-03-03T15:08:28;13.68;;;4.20;;
20232;SDS011;37438;55.674;13.074;2023-03-03T15:11:37;12.95;;;3.58;;
20232;SDS011;37438;55.674;13.074;2023-03-03T15:14:44;11.57;;;3.85;;
20232;SDS011;37438;55.674;13.074;2023-03-03T15:18:09;17.17;;;5.05;;
20232;SDS011;37438;55.674;13.074;2023-03-03T15:21:24;16.15;;;6.40;;
20232;SDS011;37438;55.674;13.074;2023-03-03T15:24:44;11.32;;;5.55;;
20232;SDS011;37438;55.674;13.074;2023-03-03T15:28:57;15.90;;;6.72;;
20232;SDS011;37438;55.674;13.074;2023-03-03T15:34:57;14.48;;;7.53;;
20232;SDS011;37438;55.674;13.074;2023-03-03T15:38:36;11.85;;;8.43;;
20232;SDS011;37438;55.674;13.074;2023-03-03T15:42:11;18.08;;;9.82;;
20232;SDS011;37438;55.674;13.074;2023-03-03T16:02:51;24.25;;;12.25;;
20232;SDS011;37438;55.674;13.074;2023-03-03T16:33:41;16.35;;;4.97;;
20232;SDS011;37438;55.674;13.074;2023-03-03T16:54:29;11.77;;;3.88;;
20232;SDS011;37438;55.674;13.074;2023-03-03T17:01:20;15.77;;;3.90;;
20232;SDS011;37438;55.674;13.074;2023-03-03T17:04:45;14.60;;;4.07;;
20232;SDS011;37438;55.674;13.074;2023-03-03T17:08:09;11.20;;;4.97;;
20232;SDS011;37438;55.674;13.074;2023-03-03T17:22:08;14.77;;;4.72;;
20232;SDS011;37438;55.674;13.074;2023-03-03T17:25:46;22.08;;;5.63;;
20232;SDS011;37438;55.674;13.074;2023-03-03T17:29:23;23.88;;;5.30;;
20232;SDS011;37438;55.674;13.074;2023-03-03T17:32:42;21.83;;;5.18;;
20232;SDS011;37438;55.674;13.074;2023-03-03T17:40:07;22.30;;;5.93;;
20232;SDS011;37438;55.674;13.074;2023-03-03T17:46:53;15.32;;;4.28;;
20232;SDS011;37438;55.674;13.074;2023-03-03T17:50:04;9.32;;;5.07;;
20232;SDS011;37438;55.674;13.074;2023-03-03T17:56:49;19.83;;;7.10;;
20232;SDS011;37438;55.674;13.074;2023-03-03T18:03:50;22.30;;;8.65;;
20232;SDS011;37438;55.674;13.074;2023-03-03T18:10:47;21.38;;;7.85;;
20232;SDS011;37438;55.674;13.074;2023-03-03T18:18:04;22.55;;;7.65;;
20232;SDS011;37438;55.674;13.074;2023-03-03T18:24:38;30.20;;;9.63;;
20232;SDS011;37438;55.674;13.074;2023-03-03T18:31:13;25.35;;;7.00;;
20232;SDS011;37438;55.674;13.074;2023-03-03T18:34:38;26.52;;;8.05;;
20232;SDS011;37438;55.674;13.074;2023-03-03T18:37:44;23.95;;;7.03;;
20232;SDS011;37438;55.674;13.074;2023-03-03T18:44:00;28.08;;;7.78;;
20232;SDS011;37438;55.674;13.074;2023-03-03T18:47:07;29.42;;;7.68;;
20232;SDS011;37438;55.674;13.074;2023-03-03T18:53:26;21.75;;;7.22;;
20232;SDS011;37438;55.674;13.074;2023-03-03T18:56:42;22.52;;;6.28;;
20232;SDS011;37438;55.674;13.074;2023-03-03T18:59:56;20.75;;;5.35;;
20232;SDS011;37438;55.674;13.074;2023-03-03T19:12:55;11.20;;;3.60;;
20232;SDS011;37438;55.674;13.074;2023-03-03T19:16:04;24.20;;;5.00;;
20232;SDS011;37438;55.674;13.074;2023-03-03T19:19:14;11.95;;;2.88;;
20232;SDS011;37438;55.674;13.074;2023-03-03T19:25:28;22.27;;;3.17;;
20232;SDS011;37438;55.674;13.074;2023-03-03T19:28:43;21.50;;;3.22;;
20232;SDS011;37438;55.674;13.074;2023-03-03T19:39:18;14.57;;;3.03;;
20232;SDS011;37438;55.674;13.074;2023-03-03T19:49:08;18.67;;;3.42;;
20232;SDS011;37438;55.674;13.074;2023-03-03T19:52:44;23.17;;;3.40;;
20232;SDS011;37438;55.674;13.074;2023-03-03T19:56:02;24.95;;;3.50;;
20232;SDS011;37438;55.674;13.074;2023-03-03T20:06:50;20.10;;;3.92;;
20232;SDS011;37438;55.674;13.074;2023-03-03T20:10:06;20.15;;;3.33;;
20232;SDS011;37438;55.674;13.074;2023-03-03T20:16:40;36.95;;;6.43;;
20232;SDS011;37438;55.674;13.074;2023-03-03T20:19:54;25.00;;;4.07;;
20232;SDS011;37438;55.674;13.074;2023-03-03T20:26:43;32.25;;;5.35;;
20232;SDS011;37438;55.674;13.074;2023-03-03T20:39:34;32.87;;;5.17;;
20232;SDS011;37438;55.674;13.074;2023-03-03T20:43:07;22.17;;;2.92;;
20232;SDS011;37438;55.674;13.074;2023-03-03T20:46:49;27.48;;;4.90;;
20232;SDS011;37438;55.674;13.074;2023-03-03T20:56:46;25.25;;;4.47;;
20232;SDS011;37438;55.674;13.074;2023-03-03T21:03:42;28.98;;;6.38;;
20232;SDS011;37438;55.674;13.074;2023-03-03T21:06:48;25.10;;;3.65;;
20232;SDS011;37438;55.674;13.074;2023-03-03T21:10:10;17.45;;;3.95;;
20232;SDS011;37438;55.674;13.074;2023-03-03T21:16:39;28.17;;;4.90;;
20232;SDS011;37438;55.674;13.074;2023-03-03T21:19:44;31.88;;;5.57;;
20232;SDS011;37438;55.674;13.074;2023-03-03T21:22:49;24.20;;;3.83;;
20232;SDS011;37438;55.674;13.074;2023-03-03T21:25:55;37.70;;;4.65;;
20232;SDS011;37438;55.674;13.074;2023-03-03T21:29:00;24.80;;;3.67;;
20232;SDS011;37438;55.674;13.074;2023-03-03T21:32:07;23.92;;;4.63;;
20232;SDS011;37438;55.674;13.074;2023-03-03T21:35:19;27.83;;;3.28;;
20232;SDS011;37438;55.674;13.074;2023-03-03T21:38:34;36.00;;;5.53;;
20232;SDS011;37438;55.674;13.074;2023-03-03T21:41:53;27.00;;;4.72;;
20232;SDS011;37438;55.674;13.074;2023-03-03T21:45:12;29.27;;;5.00;;
20232;SDS011;37438;55.674;13.074;2023-03-03T21:51:22;26.90;;;3.40;;
20232;SDS011;37438;55.674;13.074;2023-03-03T21:54:27;29.73;;;3.58;;
20232;SDS011;37438;55.674;13.074;2023-03-03T21:57:32;18.77;;;3.75;;
20232;SDS011;37438;55.674;13.074;2023-03-03T22:00:37;24.25;;;3.45;;
20232;SDS011;37438;55.674;13.074;2023-03-03T22:03:42;22.75;;;4.00;;
20232;SDS011;37438;55.674;13.074;2023-03-03T22:06:48;24.75;;;3.70;;
20232;SDS011;37438;55.674;13.074;2023-03-03T22:09:53;28.65;;;4.45;;
20232;SDS011;37438;55.674;13.074;2023-03-03T22:12:57;25.50;;;6.15;;
20232;SDS011;37438;55.674;13.074;2023-03-03T22:16:02;19.08;;;3.72;;
20232;SDS011;37438;55.674;13.074;2023-03-03T22:19:07;23.63;;;4.10;;
20232;SDS011;37438;55.674;13.074;2023-03-03T22:22:12;21.25;;;5.93;;
20232;SDS011;37438;55.674;13.074;2023-03-03T22:25:16;22.90;;;4.40;;
20232;SDS011;37438;55.674;13.074;2023-03-03T22:28:21;14.73;;;2.97;;
20232;SDS011;37438;55.674;13.074;2023-03-03T22:31:25;23.65;;;3.95;;
20232;SDS011;37438;55.674;13.074;2023-03-03T22:34:30;21.88;;;3.03;;
20232;SDS011;37438;55.674;13.074;2023-03-03T22:37:34;21.13;;;3.83;;
20232;SDS011;37438;55.674;13.074;2023-03-03T22:40:39;22.75;;;3.15;;
20232;SDS011;37438;55.674;13.074;2023-03-03T22:43:43;19.77;;;3.20;;
20232;SDS011;37438;55.674;13.074;2023-03-03T22:46:47;20.65;;;4.22;;
20232;SDS011;37438;55.674;13.074;2023-03-03T22:49:52;25.00;;;2.70;;
20232;SDS011;37438;55.674;13.074;2023-03-03T22:52:56;24.08;;;4.22;;
20232;SDS011;37438;55.674;13.074;2023-03-03T22:56:01;23.80;;;3.88;;
20232;SDS011;37438;55.674;13.074;2023-03-03T22:59:05;15.23;;;3.25;;
20232;SDS011;37438;55.674;13.074;2023-03-03T23:02:10;23.57;;;3.53;;
20232;SDS011;37438;55.674;13.074;2023-03-03T23:05:14;19.70;;;2.85;;
20232;SDS011;37438;55.674;13.074;2023-03-03T23:08:18;33.50;;;3.70;;
20232;SDS011;37438;55.674;13.074;2023-03-03T23:11:23;26.83;;;4.13;;
20232;SDS011;37438;55.674;13.074;2023-03-03T23:14:30;26.33;;;6.68;;
20232;SDS011;37438;55.674;13.074;2023-03-03T23:17:34;16.30;;;2.95;;
20232;SDS011;37438;55.674;13.074;2023-03-03T23:20:38;19.13;;;2.17;;
20232;SDS011;37438;55.674;13.074;2023-03-03T23:23:48;19.83;;;3.38;;
20232;SDS011;37438;55.674;13.074;2023-03-03T23:26:53;29.40;;;4.90;;
20232;SDS011;37438;55.674;13.074;2023-03-03T23:30:00;40.33;;;4.95;;
20232;SDS011;37438;55.674;13.074;2023-03-03T23:33:05;26.75;;;4.53;;
20232;SDS011;37438;55.674;13.074;2023-03-03T23:36:09;23.03;;;3.53;;
20232;SDS011;37438;55.674;13.074;2023-03-03T23:39:14;20.23;;;3.10;;
20232;SDS011;37438;55.674;13.074;2023-03-03T23:42:19;26.80;;;4.05;;
20232;SDS011;37438;55.674;13.074;2023-03-03T23:45:23;36.75;;;4.30;;
20232;SDS011;37438;55.674;13.074;2023-03-03T23:48:28;19.67;;;3.70;;
20232;SDS011;37438;55.674;13.074;2023-03-03T23:51:33;31.42;;;3.88;;
20232;SDS011;37438;55.674;13.074;2023-03-03T23:54:37;22.57;;;3.43;;
20232;SDS011;37438;55.674;13.074;2023-03-03T23:57:42;20.30;;;2.77;;
